Terminal Aerodrome Forecast
Issued by NWS

Home | Current Version | Previous Version | Text Only | Print | Product List | Glossary On
Versions: 1 2 3 4 5 6 7 8 9 10 11 12 13 14 15 16 17 18 19 20 21 22 23 24 25 26 27 28 29 30 31 32 33 34 35 36 37 38 39 40 41 42 43 44 45 46 47 48
000
FTPA31 PHFO 281100
TAFMDY
TAF
PMDY 281120Z 2812/2912 15018G28KT P6SM VCSH SCT022 BKN050
      TEMPO 2812/2816 1SM SHRA BR SCT008 BKN020
     FM281700 17025G35KT P6SM VCSH SCT025 BKN040
      AMD LTD TO CLD AND WIND=

USA.gov is the U.S. government's official web portal to all federal, state and local government web resources and services.